createdAt,value
2018-02-27T00:00:11.132Z,-7.03
2018-02-27T00:02:38.610Z,-6.85
2018-02-27T00:05:06.262Z,-6.96
2018-02-27T00:07:34.049Z,-7.32
2018-02-27T00:10:01.518Z,-7.29
2018-02-27T00:12:28.990Z,-7.31
2018-02-27T00:14:57.116Z,-7.30
2018-02-27T00:17:24.596Z,-7.26
2018-02-27T00:19:52.053Z,-7.34
2018-02-27T00:22:19.805Z,-7.48
2018-02-27T00:24:47.270Z,-7.27
2018-02-27T00:27:14.730Z,-7.36
2018-02-27T00:29:43.426Z,-7.61
2018-02-27T00:32:10.905Z,-7.42
2018-02-27T00:34:38.371Z,-7.42
2018-02-27T00:37:07.025Z,-7.41
2018-02-27T00:39:34.493Z,-7.63
2018-02-27T00:42:01.958Z,-7.55
2018-02-27T00:44:30.021Z,-7.51
2018-02-27T00:46:57.484Z,-7.45
2018-02-27T00:49:24.946Z,-7.50
2018-02-27T00:51:52.697Z,-7.38
2018-02-27T00:54:20.167Z,-7.65
2018-02-27T00:56:47.629Z,-7.74
2018-02-27T00:59:15.415Z,-7.61
2018-02-27T01:01:42.885Z,-7.50
2018-02-27T01:04:10.354Z,-7.65
2018-02-27T01:06:38.088Z,-7.71
2018-02-27T01:09:05.551Z,-7.62
2018-02-27T01:11:33.024Z,-7.57
2018-02-27T01:14:00.736Z,-7.69
2018-02-27T01:16:28.193Z,-7.78
2018-02-27T01:18:55.660Z,-7.50
2018-02-27T01:21:23.296Z,-7.60
2018-02-27T01:23:50.756Z,-7.81
2018-02-27T01:26:18.368Z,-7.66
2018-02-27T01:28:46.145Z,-7.66
2018-02-27T01:31:16.116Z,-7.71
2018-02-27T01:33:43.576Z,-7.65
2018-02-27T01:36:11.315Z,-7.68
2018-02-27T01:38:38.786Z,-7.73
2018-02-27T01:41:06.252Z,-8.05
2018-02-27T01:43:34.581Z,-7.97
2018-02-27T01:46:02.045Z,-8.16
2018-02-27T01:48:29.512Z,-8.09
2018-02-27T01:51:09.201Z,-7.89
2018-02-27T01:53:37.037Z,-7.92
2018-02-27T01:56:04.496Z,-8.02
2018-02-27T01:58:32.173Z,-7.96
2018-02-27T02:00:59.624Z,-7.99
2018-02-27T02:03:27.088Z,-8.23
2018-02-27T02:05:54.941Z,-8.20
2018-02-27T02:08:22.412Z,-8.06
2018-02-27T02:10:49.877Z,-8.32
2018-02-27T02:13:17.629Z,-8.21
2018-02-27T02:15:45.106Z,-8.02
2018-02-27T02:18:12.581Z,-8.34
2018-02-27T02:20:40.309Z,-8.26
2018-02-27T02:23:07.774Z,-8.45
2018-02-27T02:25:35.242Z,-8.31
2018-02-27T02:28:02.984Z,-8.36
2018-02-27T02:30:30.460Z,-8.21
2018-02-27T02:32:58.298Z,-8.27
2018-02-27T02:35:26.295Z,-8.47
2018-02-27T02:37:53.758Z,-8.44
2018-02-27T02:40:21.221Z,-8.57
2018-02-27T02:42:48.958Z,-8.64
2018-02-27T02:45:16.414Z,-8.34
2018-02-27T02:47:43.878Z,-8.48
2018-02-27T02:50:11.670Z,-8.43
2018-02-27T02:52:39.137Z,-8.61
2018-02-27T02:55:06.598Z,-8.54
2018-02-27T02:57:34.349Z,-8.51
2018-02-27T03:00:01.818Z,-8.66
2018-02-27T03:02:29.279Z,-8.64
2018-02-27T03:04:57.349Z,-8.50
2018-02-27T03:07:24.812Z,-8.51
2018-02-27T03:09:52.275Z,-8.55
2018-02-27T03:12:20.033Z,-8.77
2018-02-27T03:14:47.500Z,-8.63
2018-02-27T03:17:14.961Z,-8.56
2018-02-27T03:19:42.722Z,-8.54
2018-02-27T03:22:10.203Z,-8.69
2018-02-27T03:24:37.661Z,-8.65
2018-02-27T03:27:05.404Z,-8.78
2018-02-27T03:29:32.885Z,-8.63
2018-02-27T03:32:00.345Z,-8.65
2018-02-27T03:34:29.325Z,-8.72
2018-02-27T03:36:56.788Z,-8.80
2018-02-27T03:39:24.257Z,-8.67
2018-02-27T03:41:52.025Z,-8.74
2018-02-27T03:44:19.498Z,-8.84
2018-02-27T03:46:46.957Z,-8.76
2018-02-27T03:49:14.700Z,-9.00
2018-02-27T03:51:42.165Z,-8.96
2018-02-27T03:54:09.628Z,-8.77
2018-02-27T03:56:37.384Z,-8.90
2018-02-27T03:59:04.873Z,-9.03
2018-02-27T04:01:32.332Z,-9.08
2018-02-27T04:04:00.081Z,-8.85
2018-02-27T04:06:27.546Z,-8.93
2018-02-27T04:08:55.373Z,-8.76
2018-02-27T04:11:23.070Z,-8.83
2018-02-27T04:13:50.532Z,-8.91
2018-02-27T04:16:18.018Z,-8.99
2018-02-27T04:18:46.059Z,-9.13
2018-02-27T04:21:13.526Z,-9.05
2018-02-27T04:23:40.994Z,-8.96
2018-02-27T04:26:08.748Z,-8.99
2018-02-27T04:28:36.202Z,-8.95
2018-02-27T04:31:03.666Z,-8.87
2018-02-27T04:33:31.454Z,-8.96
2018-02-27T04:35:59.597Z,-8.67
2018-02-27T04:38:27.053Z,-8.74
2018-02-27T04:40:54.737Z,-9.01
2018-02-27T04:43:22.205Z,-8.92
2018-02-27T04:45:49.666Z,-8.74
2018-02-27T04:48:17.726Z,-8.90
2018-02-27T04:50:45.189Z,-8.73
2018-02-27T04:53:12.654Z,-8.81
2018-02-27T04:55:40.379Z,-8.51
2018-02-27T04:58:07.829Z,-8.81
2018-02-27T05:00:35.297Z,-8.49
2018-02-27T05:03:03.094Z,-8.47
2018-02-27T05:05:30.556Z,-8.45
2018-02-27T05:07:58.021Z,-8.46
2018-02-27T05:10:25.790Z,-8.94
2018-02-27T05:12:53.257Z,-8.73
2018-02-27T05:15:20.728Z,-8.72
2018-02-27T05:17:48.480Z,-8.65
2018-02-27T05:20:15.945Z,-8.97
2018-02-27T05:22:43.433Z,-8.93
2018-02-27T05:25:11.464Z,-9.09
2018-02-27T05:27:38.930Z,-8.01
2018-02-27T05:30:06.392Z,-8.47
2018-02-27T05:32:34.481Z,-9.04
2018-02-27T05:35:01.950Z,-9.00
2018-02-27T05:37:29.460Z,-8.91
2018-02-27T05:39:57.156Z,-9.03
2018-02-27T05:42:24.621Z,-9.03
2018-02-27T05:44:52.094Z,-8.85
2018-02-27T05:47:19.834Z,-8.95
2018-02-27T05:49:47.317Z,-8.91
2018-02-27T05:52:14.787Z,-8.73
2018-02-27T05:54:42.541Z,-8.91
2018-02-27T05:57:10.000Z,-9.06
2018-02-27T05:59:37.453Z,-9.03
2018-02-27T06:02:05.212Z,-8.92
2018-02-27T06:04:32.688Z,-8.74
2018-02-27T06:07:00.151Z,-8.83
2018-02-27T06:09:27.900Z,-8.94
2018-02-27T06:11:55.353Z,-8.83
2018-02-27T06:14:22.816Z,-9.03
2018-02-27T06:16:50.653Z,-9.02
2018-02-27T06:19:18.272Z,-8.79
2018-02-27T06:21:45.737Z,-8.82
2018-02-27T06:24:13.588Z,-9.15
2018-02-27T06:26:41.047Z,-9.10
2018-02-27T06:29:08.515Z,-8.84
2018-02-27T06:31:36.580Z,-8.89
2018-02-27T06:34:04.050Z,-8.70
2018-02-27T06:36:31.514Z,-8.55
2018-02-27T06:38:59.894Z,-9.07
2018-02-27T06:41:27.383Z,-8.72
2018-02-27T06:43:54.840Z,-8.82
2018-02-27T06:46:22.566Z,-8.66
2018-02-27T06:48:50.033Z,-8.73
2018-02-27T06:51:17.514Z,-9.06
2018-02-27T06:53:45.242Z,-8.84
2018-02-27T06:56:12.713Z,-8.91
2018-02-27T06:58:40.173Z,-8.56
2018-02-27T07:01:07.861Z,-8.90
2018-02-27T07:03:35.341Z,-8.73
2018-02-27T07:06:02.809Z,-8.71
2018-02-27T07:08:30.490Z,-8.35
2018-02-27T07:10:57.956Z,-8.40
2018-02-27T07:13:25.416Z,-8.58
2018-02-27T07:15:53.203Z,-8.62
2018-02-27T07:18:20.659Z,-8.56
2018-02-27T07:20:48.208Z,-8.97
2018-02-27T07:23:15.989Z,-8.43
2018-02-27T07:25:43.447Z,-8.39
2018-02-27T07:28:10.906Z,-8.28
2018-02-27T07:30:38.634Z,-8.22
2018-02-27T07:33:06.098Z,-8.29
2018-02-27T07:35:33.562Z,-8.69
2018-02-27T07:38:01.369Z,-8.65
2018-02-27T07:40:30.747Z,-8.36
2018-02-27T07:42:58.214Z,-8.30
2018-02-27T07:45:26.038Z,-8.49
2018-02-27T07:47:53.509Z,-8.41
2018-02-27T07:50:20.968Z,-8.33
2018-02-27T07:52:49.516Z,-8.21
2018-02-27T07:55:16.982Z,-8.05
2018-02-27T07:57:44.442Z,-8.47
2018-02-27T08:00:12.834Z,-8.34
2018-02-27T08:02:40.312Z,-7.99
2018-02-27T08:05:07.781Z,-7.96
2018-02-27T08:07:35.818Z,-8.10
2018-02-27T08:10:03.297Z,-7.81
2018-02-27T08:12:30.773Z,-7.36
2018-02-27T08:14:58.771Z,-8.23
2018-02-27T08:17:26.233Z,-8.17
2018-02-27T08:19:53.696Z,-7.50
2018-02-27T08:22:21.485Z,-7.47
2018-02-27T08:24:48.954Z,-7.44
2018-02-27T08:27:16.408Z,-8.13
2018-02-27T08:29:44.173Z,-7.93
2018-02-27T08:32:11.637Z,-7.23
2018-02-27T08:34:39.123Z,-7.27
2018-02-27T08:37:06.840Z,-7.68
2018-02-27T08:39:34.315Z,-7.50
2018-02-27T08:42:02.774Z,-7.56
2018-02-27T08:44:30.414Z,-7.66
2018-02-27T08:46:57.885Z,-7.81
2018-02-27T08:49:25.391Z,-7.31
2018-02-27T08:51:53.493Z,-7.34
2018-02-27T08:54:21.001Z,-7.72
2018-02-27T08:56:48.464Z,-7.12
2018-02-27T08:59:16.453Z,-7.30
2018-02-27T09:01:43.919Z,-6.57
2018-02-27T09:04:11.449Z,-7.43
2018-02-27T09:06:39.149Z,-6.96
2018-02-27T09:09:06.636Z,-7.21
2018-02-27T09:11:34.113Z,-6.45
2018-02-27T09:14:01.817Z,-7.25
2018-02-27T09:16:29.286Z,-6.36
2018-02-27T09:18:56.753Z,-6.30
2018-02-27T09:21:24.817Z,-7.56
2018-02-27T09:23:52.284Z,-7.09
2018-02-27T09:26:19.749Z,-7.29
2018-02-27T09:28:47.512Z,-7.87
2018-02-27T09:31:14.978Z,-7.74
2018-02-27T09:33:42.446Z,-7.49
2018-02-27T09:36:10.524Z,-7.64
2018-02-27T09:38:37.991Z,-7.12
2018-02-27T09:41:05.448Z,-7.38
2018-02-27T09:43:33.528Z,-7.66
2018-02-27T09:46:01.059Z,-7.21
2018-02-27T09:48:28.526Z,-6.49
2018-02-27T09:50:56.504Z,-6.92
2018-02-27T09:53:23.967Z,-6.53
2018-02-27T09:55:51.430Z,-7.15
2018-02-27T09:58:19.491Z,-6.48
2018-02-27T10:00:46.959Z,-6.70
2018-02-27T10:03:14.438Z,-5.93
2018-02-27T10:05:42.490Z,-4.96
2018-02-27T10:08:11.124Z,-5.51
2018-02-27T10:10:38.601Z,-5.22
2018-02-27T10:13:06.394Z,-5.47
2018-02-27T10:15:33.866Z,-6.06
2018-02-27T10:18:01.337Z,-6.25
2018-02-27T10:20:29.692Z,-6.63
2018-02-27T10:22:57.162Z,-6.81
2018-02-27T10:25:24.636Z,-5.73
2018-02-27T10:27:52.701Z,-7.05
2018-02-27T10:30:20.157Z,-7.08
2018-02-27T10:32:47.625Z,-5.89
2018-02-27T10:35:15.392Z,-5.92
2018-02-27T10:37:42.854Z,-6.05
2018-02-27T10:40:10.341Z,-5.47
2018-02-27T10:42:38.072Z,-6.51
2018-02-27T10:45:05.967Z,-6.06
2018-02-27T10:47:33.445Z,-6.60
2018-02-27T10:50:01.365Z,-6.04
2018-02-27T10:52:28.834Z,-4.79
2018-02-27T10:54:56.328Z,-5.60
2018-02-27T10:57:24.069Z,-5.76
2018-02-27T10:59:51.536Z,-5.59
2018-02-27T11:09:02.435Z,-6.25
2018-02-27T11:11:29.882Z,-6.14
2018-02-27T11:13:57.349Z,-5.38
2018-02-27T11:16:25.332Z,-5.99
2018-02-27T11:18:52.801Z,-6.36
2018-02-27T11:21:20.281Z,-5.23
2018-02-27T11:23:48.025Z,-5.82
2018-02-27T11:26:15.508Z,-5.76
2018-02-27T11:28:42.969Z,-4.35
2018-02-27T11:31:10.825Z,-5.39
2018-02-27T11:33:38.293Z,-5.35
2018-02-27T11:36:05.756Z,-6.04
2018-02-27T11:38:33.701Z,-3.64
2018-02-27T11:41:01.187Z,-4.00
2018-02-27T11:43:28.657Z,-4.32
2018-02-27T11:45:57.540Z,-4.27
2018-02-27T11:48:24.998Z,-4.93
2018-02-27T11:50:52.466Z,-4.35
2018-02-27T11:53:20.305Z,-5.49
2018-02-27T11:55:47.771Z,-4.18
2018-02-27T11:58:15.236Z,-3.94
2018-02-27T12:00:42.986Z,-5.78
2018-02-27T12:03:10.460Z,-4.62
2018-02-27T12:05:38.216Z,-5.54
2018-02-27T12:08:06.253Z,-5.54
2018-02-27T12:10:33.717Z,-3.26
2018-02-27T12:13:01.187Z,-3.90
2018-02-27T12:15:28.783Z,-4.77
2018-02-27T12:17:56.241Z,-4.58
2018-02-27T12:20:23.716Z,-4.19
2018-02-27T12:22:51.348Z,-4.74
2018-02-27T12:25:18.815Z,-4.75
2018-02-27T12:27:46.295Z,-5.49
2018-02-27T12:30:14.098Z,-5.82
2018-02-27T12:32:41.518Z,-5.02
2018-02-27T12:35:08.985Z,-5.59
2018-02-27T12:37:37.035Z,-5.10
2018-02-27T12:40:04.500Z,-5.08
2018-02-27T12:42:31.969Z,-4.58
2018-02-27T12:44:59.753Z,-5.12
2018-02-27T12:47:27.886Z,-4.36
2018-02-27T12:49:55.357Z,-5.43
2018-02-27T12:52:23.343Z,-4.84
2018-02-27T12:54:50.821Z,-5.98
2018-02-27T12:57:18.293Z,-4.83
2018-02-27T12:59:46.034Z,-5.32
2018-02-27T13:02:13.496Z,-4.74
2018-02-27T13:04:40.974Z,-5.19
2018-02-27T13:07:08.712Z,-5.84
2018-02-27T13:09:36.181Z,-5.39
2018-02-27T13:12:03.652Z,-6.05
2018-02-27T13:14:33.004Z,-5.56
2018-02-27T13:17:00.469Z,-6.15
2018-02-27T13:19:27.929Z,-5.47
2018-02-27T13:21:55.624Z,-6.24
2018-02-27T13:24:23.089Z,-6.28
2018-02-27T13:26:50.549Z,-5.84
2018-02-27T13:29:20.146Z,-5.76
2018-02-27T13:31:47.620Z,-5.48
2018-02-27T13:34:15.085Z,-5.90
2018-02-27T13:36:42.847Z,-4.72
2018-02-27T13:39:10.310Z,-5.74
2018-02-27T13:41:37.778Z,-6.01
2018-02-27T13:44:05.536Z,-5.75
2018-02-27T13:46:33.018Z,-6.04
2018-02-27T13:49:04.198Z,-6.03
2018-02-27T13:51:30.985Z,-6.27
2018-02-27T13:53:58.450Z,-5.24
2018-02-27T13:56:25.905Z,-5.47
2018-02-27T13:58:53.671Z,-5.42
2018-02-27T14:01:21.151Z,-5.03
2018-02-27T14:03:48.608Z,-5.63
2018-02-27T14:06:16.344Z,-5.92
2018-02-27T14:08:43.804Z,-5.04
2018-02-27T14:11:11.277Z,-5.53
2018-02-27T14:13:39.051Z,-5.07
2018-02-27T14:16:06.518Z,-5.28
2018-02-27T14:18:33.984Z,-5.52
2018-02-27T14:21:01.667Z,-5.74
2018-02-27T14:23:29.138Z,-5.76
2018-02-27T14:25:56.596Z,-5.42
2018-02-27T14:28:24.423Z,-5.30
2018-02-27T14:30:51.901Z,-5.02
2018-02-27T14:33:19.382Z,-6.21
2018-02-27T14:35:47.112Z,-5.76
2018-02-27T14:38:14.594Z,-5.35
2018-02-27T14:40:42.069Z,-5.69
2018-02-27T14:43:10.112Z,-4.89
2018-02-27T14:45:37.574Z,-4.71
2018-02-27T14:48:05.041Z,-5.38
2018-02-27T14:50:33.397Z,-5.30
2018-02-27T14:53:00.867Z,-5.68
2018-02-27T14:55:28.329Z,-5.54
2018-02-27T14:57:56.082Z,-5.35
2018-02-27T15:00:23.553Z,-5.04
2018-02-27T15:02:51.017Z,-5.40
2018-02-27T15:05:20.921Z,-5.52
2018-02-27T15:07:48.392Z,-5.81
2018-02-27T15:10:15.860Z,-5.69
2018-02-27T15:12:43.613Z,-6.05
2018-02-27T15:15:11.086Z,-5.72
2018-02-27T15:17:38.551Z,-5.91
2018-02-27T15:20:06.298Z,-5.64
2018-02-27T15:22:33.770Z,-6.08
2018-02-27T15:25:01.254Z,-5.78
2018-02-27T15:27:29.287Z,-6.39
2018-02-27T15:29:56.756Z,-6.64
2018-02-27T15:32:24.233Z,-6.01
2018-02-27T15:34:51.990Z,-5.68
2018-02-27T15:37:19.474Z,-5.74
2018-02-27T15:39:46.941Z,-5.81
2018-02-27T15:42:14.630Z,-6.06
2018-02-27T15:44:42.097Z,-6.33
2018-02-27T15:47:09.575Z,-6.34
2018-02-27T15:49:37.673Z,-6.39
2018-02-27T15:52:05.803Z,-6.12
2018-02-27T15:54:33.266Z,-6.62
2018-02-27T15:57:00.960Z,-6.80
2018-02-27T15:59:28.426Z,-6.71
2018-02-27T16:01:55.894Z,-6.78
2018-02-27T16:04:23.646Z,-6.64
2018-02-27T16:06:51.116Z,-6.67
2018-02-27T16:09:18.570Z,-6.74
2018-02-27T16:11:46.344Z,-6.63
2018-02-27T16:14:13.821Z,-6.80
2018-02-27T16:16:41.296Z,-6.68
2018-02-27T16:19:09.346Z,-6.71
2018-02-27T16:21:36.814Z,-6.60
2018-02-27T16:24:04.306Z,-6.66
2018-02-27T16:26:32.313Z,-6.48
2018-02-27T16:28:59.789Z,-6.87
2018-02-27T16:31:27.261Z,-6.54
2018-02-27T16:33:55.005Z,-6.85
2018-02-27T16:36:22.469Z,-6.87
2018-02-27T16:38:49.933Z,-6.66
2018-02-27T16:41:17.700Z,-6.80
2018-02-27T16:43:45.244Z,-6.73
2018-02-27T16:46:13.102Z,-6.77
2018-02-27T16:48:40.987Z,-6.70
2018-02-27T16:51:08.679Z,-6.68
2018-02-27T16:53:37.214Z,-6.78
2018-02-27T16:56:05.262Z,-6.79
2018-02-27T16:58:32.903Z,-6.80
2018-02-27T17:01:00.389Z,-6.64
2018-02-27T17:03:28.573Z,-6.70
2018-02-27T17:05:56.037Z,-6.57
2018-02-27T17:08:23.538Z,-6.67
2018-02-27T17:10:51.264Z,-6.82
2018-02-27T17:13:18.757Z,-6.66
2018-02-27T17:15:46.222Z,-6.86
2018-02-27T17:18:14.209Z,-6.81
2018-02-27T17:20:41.776Z,-6.62
2018-02-27T17:23:09.460Z,-6.81
2018-02-27T17:25:37.455Z,-6.80
2018-02-27T17:28:04.933Z,-6.81
2018-02-27T17:30:32.413Z,-6.82
2018-02-27T17:33:00.266Z,-6.84
2018-02-27T17:35:27.783Z,-6.58
2018-02-27T17:37:55.279Z,-6.54
2018-02-27T17:40:23.230Z,-6.79
2018-02-27T17:42:50.720Z,-6.72
2018-02-27T17:45:18.184Z,-6.62
2018-02-27T17:47:46.798Z,-6.51
2018-02-27T17:50:14.294Z,-6.69
2018-02-27T17:52:41.772Z,-6.74
2018-02-27T17:55:09.819Z,-6.85
2018-02-27T17:57:37.339Z,-6.68
2018-02-27T18:00:04.863Z,-6.68
2018-02-27T18:02:32.795Z,-6.69
2018-02-27T18:05:01.207Z,-6.73
2018-02-27T18:07:28.974Z,-6.50
2018-02-27T18:09:57.051Z,-6.58
2018-02-27T18:12:24.522Z,-6.66
2018-02-27T18:14:51.987Z,-6.86
2018-02-27T18:17:19.720Z,-6.71
2018-02-27T18:19:47.244Z,-6.85
2018-02-27T18:22:15.001Z,-6.68
2018-02-27T18:24:42.831Z,-6.76
2018-02-27T18:27:10.399Z,-6.46
2018-02-27T18:29:37.926Z,-6.36
2018-02-27T18:32:05.977Z,-6.32
2018-02-27T18:34:33.442Z,-6.40
2018-02-27T18:37:00.913Z,-6.65
2018-02-27T18:39:29.293Z,-6.79
2018-02-27T18:41:56.782Z,-6.75
2018-02-27T18:44:24.246Z,-6.52
2018-02-27T18:46:52.282Z,-6.64
2018-02-27T18:49:19.774Z,-6.62
2018-02-27T18:51:47.244Z,-6.39
2018-02-27T18:54:14.957Z,-6.39
2018-02-27T18:56:44.664Z,-6.72
2018-02-27T18:59:12.125Z,-6.55
2018-02-27T19:01:40.109Z,-6.51
2018-02-27T19:04:07.582Z,-6.38
2018-02-27T19:06:35.077Z,-6.48
2018-02-27T19:09:02.812Z,-6.72
2018-02-27T19:11:30.288Z,-6.53
2018-02-27T19:13:57.777Z,-6.46
2018-02-27T19:16:25.409Z,-6.61
2018-02-27T19:18:52.886Z,-6.52
2018-02-27T19:21:20.382Z,-6.63
2018-02-27T19:23:48.179Z,-6.65
2018-02-27T19:26:15.675Z,-6.82
2018-02-27T19:28:43.383Z,-6.89
2018-02-27T19:31:11.129Z,-6.64
2018-02-27T19:33:38.598Z,-6.71
2018-02-27T19:36:06.070Z,-6.62
2018-02-27T19:38:33.858Z,-6.52
2018-02-27T19:41:01.320Z,-6.78
2018-02-27T19:43:28.782Z,-6.74
2018-02-27T19:45:56.841Z,-6.87
2018-02-27T19:48:24.303Z,-6.82
2018-02-27T19:50:51.757Z,-6.89
2018-02-27T19:53:19.537Z,-6.76
2018-02-27T19:55:47.012Z,-6.94
2018-02-27T19:58:15.144Z,-7.02
2018-02-27T20:00:42.844Z,-6.95
2018-02-27T20:03:10.312Z,-6.85
2018-02-27T20:05:37.773Z,-6.91
2018-02-27T20:08:05.833Z,-6.85
2018-02-27T20:10:33.304Z,-7.05
2018-02-27T20:13:00.780Z,-6.89
2018-02-27T20:15:28.527Z,-6.64
2018-02-27T20:18:01.599Z,-6.87
2018-02-27T20:20:29.610Z,-6.96
2018-02-27T20:23:02.736Z,-6.96
2018-02-27T20:25:31.002Z,-6.99
2018-02-27T20:27:58.496Z,-6.93
2018-02-27T20:30:25.952Z,-6.79
2018-02-27T20:32:53.948Z,-6.96
2018-02-27T20:35:21.441Z,-6.67
2018-02-27T20:37:48.909Z,-6.62
2018-02-27T20:40:16.651Z,-6.64
2018-02-27T20:42:44.138Z,-7.03
2018-02-27T20:45:12.217Z,-6.91
2018-02-27T20:47:40.652Z,-7.17
2018-02-27T20:50:08.125Z,-7.17
2018-02-27T20:52:35.583Z,-7.20
2018-02-27T20:55:03.233Z,-7.13
2018-02-27T20:57:31.039Z,-7.15
2018-02-27T20:59:58.666Z,-7.14
2018-02-27T21:02:26.532Z,-7.18
2018-02-27T21:04:53.992Z,-7.07
2018-02-27T21:07:21.750Z,-7.23
2018-02-27T21:09:49.542Z,-7.26
2018-02-27T21:12:17.005Z,-7.25
2018-02-27T21:14:44.489Z,-7.24
2018-02-27T21:17:12.895Z,-7.19
2018-02-27T21:19:40.653Z,-6.96
2018-02-27T21:22:08.112Z,-6.85
2018-02-27T21:24:35.821Z,-7.10
2018-02-27T21:27:03.281Z,-7.06
2018-02-27T21:29:31.087Z,-7.28
2018-02-27T21:31:58.833Z,-7.33
2018-02-27T21:34:26.342Z,-7.35
2018-02-27T21:36:53.776Z,-7.18
2018-02-27T21:39:21.872Z,-7.45
2018-02-27T21:41:49.370Z,-7.11
2018-02-27T21:44:16.813Z,-7.03
2018-02-27T21:46:44.805Z,-6.80
2018-02-27T21:49:12.277Z,-6.98
2018-02-27T21:51:39.740Z,-6.73
2018-02-27T21:54:07.371Z,-6.87
2018-02-27T21:56:34.830Z,-7.01
2018-02-27T21:59:02.297Z,-6.85
2018-02-27T22:01:30.496Z,-6.84
2018-02-27T22:03:57.956Z,-6.96
2018-02-27T22:06:25.422Z,-6.75
2018-02-27T22:08:53.188Z,-6.65
2018-02-27T22:11:20.666Z,-7.12
2018-02-27T22:13:48.125Z,-7.16
2018-02-27T22:16:15.873Z,-7.15
2018-02-27T22:18:43.338Z,-7.12
2018-02-27T22:21:10.811Z,-7.33
2018-02-27T22:23:38.566Z,-7.08
2018-02-27T22:26:06.934Z,-7.04
2018-02-27T22:28:34.401Z,-7.41
2018-02-27T22:31:02.409Z,-7.61
2018-02-27T22:33:29.874Z,-7.40
2018-02-27T22:35:57.333Z,-7.41
2018-02-27T22:38:25.164Z,-7.49
2018-02-27T22:40:52.634Z,-7.18
2018-02-27T22:43:20.104Z,-7.52
2018-02-27T22:45:47.839Z,-7.50
2018-02-27T22:48:15.324Z,-7.27
2018-02-27T22:50:42.781Z,-7.62
2018-02-27T22:53:10.506Z,-7.53
2018-02-27T22:55:37.963Z,-7.54
2018-02-27T22:58:05.428Z,-7.32
2018-02-27T23:00:40.281Z,-7.17
2018-02-27T23:03:10.275Z,-7.44
2018-02-27T23:05:37.757Z,-7.19
2018-02-27T23:08:05.438Z,-7.54
2018-02-27T23:10:32.899Z,-7.49
2018-02-27T23:13:00.360Z,-7.62
2018-02-27T23:15:28.732Z,-7.64
2018-02-27T23:17:56.198Z,-7.48
2018-02-27T23:20:23.662Z,-7.77
2018-02-27T23:22:51.425Z,-7.81
2018-02-27T23:28:30.476Z,-7.78
2018-02-27T23:30:59.002Z,-7.90
2018-02-27T23:33:38.711Z,-7.83
2018-02-27T23:36:06.183Z,-7.68
2018-02-27T23:38:33.645Z,-7.81
2018-02-27T23:41:02.020Z,-7.75
2018-02-27T23:43:29.490Z,-7.98
2018-02-27T23:45:56.957Z,-7.89
2018-02-27T23:48:24.603Z,-7.99
2018-02-27T23:50:52.061Z,-8.03
2018-02-27T23:53:19.525Z,-8.10
2018-02-27T23:55:47.260Z,-8.04
2018-02-27T23:58:14.748Z,-8.06
